Sturgeon Bay, WI

7:54 PM CDT on May 25, 2015 (GMT -0500)
Menominee-Marinette Twin County | | Change Station
CLOSE
Current Station
Airport
Location: Menominee,
Elevation: 627 ft
Nearby Weather Stations

Elev 627 ft 45.13 °N, 87.64 °W | Updated 19 minutes ago

Clear
Clear
73 °F
Feels Like 73 °F
N
6
Wind Variable Wind from WSW

Today
High -- | Low -- °F
--% Chance of Precip.
Yesterday
High -- | Low -- °F
Precip. -- in
5:11 AM 8:22 PM
First Quarter, 53% visible
Pressure 29.76 in
Visibility 10.0 miles
Clouds Scattered Clouds 7000 ft
Dew Point 57 °F
Humidity 57%
Rainfall 0.37 in
Snow Depth Not available.
UV 0 out of 12
Pollen .90 out of 12
Air Quality Not available.
Flu Activity Sporadic
METAR KMNM 260035Z AUTO 24005KT 10SM SCT070 23/14 A2976 RMK AO1

More Conditions Fewer Conditions

Pressure 29.76 in
Visibility 10.0 miles
Clouds Scattered Clouds 7000 ft
Dew Point 57 °F
Humidity 57%
Rainfall 0.37 in
Snow Depth Not available.
UV 0 out of 12
Pollen .90 out of 12
Air Quality Not available.
Flu Activity Sporadic
METAR KMNM 260035Z AUTO 24005KT 10SM SCT070 23/14 A2976 RMK AO1

More Conditions Fewer Conditions

10-Day Weather Forecast

Almanac

Astronomy

May. 25, 2015 Rise Set
Actual Time
Civil Twilight
Nautical Twilight
Astronomical Twilight
Moon
Length of Visible Light
Length of Day
Tomorrow will be .
, % of the Moon is Illuminated

Today's Extremes

State Highs State Lows

Community

WunderPhotos

Upload Photos

1,824,190 photos uploaded!

WunderBlogs® & News

Nearby

Air Quality

  Air Quality AQ Index Pollutant
Not available.

Snow Depth

Station Depth Elevation

Earthquake Activity

City Distance Mag. Time & Date
Minimum magnitude displayed is 2.5.

Coastal Water Temperatures

Place Temperature

Stations

Nearby Weather Stations

Station Location Temp. Windchill Dew Point Humidity Wind Precip. Elev Updated Type